createdAt,value
2018-09-11T00:48:17.490Z,56.11
2018-09-11T00:53:20.829Z,56.69
2018-09-11T00:58:24.153Z,56.62
2018-09-11T02:35:29.238Z,57.95
2018-09-11T02:40:32.563Z,59.15
2018-09-11T03:48:52.570Z,60.58
2018-09-11T03:53:55.926Z,60.73
2018-09-11T03:59:00.213Z,60.74
2018-09-11T04:32:48.582Z,61.66
2018-09-11T04:37:51.903Z,61.87
2018-09-11T04:42:55.252Z,61.87
2018-09-11T04:47:58.656Z,61.65
2018-09-11T04:53:03.295Z,61.73
2018-09-11T04:58:06.633Z,62.13
2018-09-11T05:03:09.970Z,62.14
2018-09-11T05:08:13.303Z,62.08
2018-09-11T05:13:16.637Z,61.75
2018-09-11T05:18:19.985Z,61.75
2018-09-11T05:23:23.327Z,61.61
2018-09-11T05:28:26.650Z,61.39
2018-09-11T05:33:29.983Z,61.33
2018-09-11T05:38:33.319Z,61.18
2018-09-11T05:43:37.406Z,61.23
2018-09-11T05:48:40.734Z,60.89
2018-09-11T05:53:44.072Z,60.70
2018-09-11T05:58:48.169Z,60.67
2018-09-11T06:03:51.506Z,60.36
2018-09-11T06:08:55.600Z,60.13
2018-09-11T06:13:58.930Z,59.84
2018-09-11T06:19:02.254Z,59.61
2018-09-11T06:24:05.576Z,59.33
2018-09-11T06:29:09.687Z,58.98
2018-09-11T07:02:58.692Z,56.41
2018-09-11T07:08:02.019Z,54.37
2018-09-11T07:13:05.350Z,55.81
2018-09-11T08:04:11.378Z,52.21
2018-09-11T08:09:14.706Z,51.63
2018-09-11T08:14:18.036Z,51.34
2018-09-11T09:05:24.423Z,51.15
2018-09-11T09:10:27.744Z,50.81
2018-09-11T10:01:30.678Z,49.18
2018-09-11T10:06:34.003Z,48.62
2018-09-11T11:02:48.776Z,44.08
2018-09-11T11:07:52.107Z,44.03
2018-09-11T11:12:55.437Z,43.82
2018-09-11T12:03:59.036Z,40.66
2018-09-11T12:09:02.367Z,40.74
2018-09-11T12:14:06.456Z,40.11
2018-09-11T13:05:11.408Z,34.26
2018-09-11T13:10:14.755Z,34.59
2018-09-11T14:01:18.610Z,31.08
2018-09-11T14:06:21.934Z,31.09
2018-09-11T14:11:25.269Z,30.38
2018-09-11T14:50:54.656Z,28.99
2018-09-11T14:55:58.766Z,28.99
2018-09-11T15:35:33.447Z,26.17
2018-09-11T15:40:36.770Z,25.18
2018-09-11T15:45:40.103Z,26.38
2018-09-11T15:50:44.211Z,25.81
2018-09-11T15:55:47.560Z,26.08
2018-09-11T16:00:51.654Z,26.51
2018-09-11T16:05:54.980Z,26.01
2018-09-11T16:10:58.313Z,26.94
2018-09-11T16:16:02.404Z,26.69
2018-09-11T16:21:05.751Z,26.71
2018-09-11T16:26:09.830Z,26.41
2018-09-11T16:31:13.318Z,26.66
2018-09-11T16:42:17.430Z,26.34
2018-09-11T16:47:20.758Z,26.45
2018-09-11T16:52:24.344Z,26.32
2018-09-11T16:57:28.076Z,26.60
2018-09-11T17:02:31.591Z,26.48
2018-09-11T17:07:35.183Z,26.73
2018-09-11T17:12:38.519Z,27.14
2018-09-11T17:17:41.856Z,27.44
2018-09-11T17:22:45.192Z,27.64
2018-09-11T17:27:49.296Z,28.07
2018-09-11T17:32:52.656Z,28.56
2018-09-11T17:37:55.983Z,28.90
2018-09-11T17:43:00.142Z,29.27
2018-09-11T17:48:03.850Z,29.58
2018-09-11T17:53:07.187Z,29.84
2018-09-11T17:58:10.513Z,30.31
2018-09-11T18:03:13.843Z,31.01
2018-09-11T18:08:18.735Z,31.37
2018-09-11T18:13:22.086Z,31.64
2018-09-11T18:18:25.415Z,32.04
2018-09-11T18:23:29.526Z,32.64
2018-09-11T18:28:32.904Z,33.31
2018-09-11T18:33:36.280Z,34.08
2018-09-11T18:38:40.574Z,34.24
2018-09-11T18:43:44.058Z,34.61
2018-09-11T18:48:47.403Z,34.83
2018-09-11T18:53:50.739Z,35.03
2018-09-11T18:58:54.072Z,35.12
2018-09-11T19:03:57.442Z,35.43
2018-09-11T19:09:00.827Z,35.79
2018-09-11T19:14:04.158Z,37.34
2018-09-11T19:19:07.515Z,36.98
2018-09-11T19:24:11.604Z,37.28
2018-09-11T19:29:14.936Z,37.55
2018-09-11T19:34:18.275Z,38.31
2018-09-11T19:39:22.373Z,39.36
2018-09-11T19:44:25.706Z,42.16
2018-09-11T19:49:29.040Z,43.21
2018-09-11T19:54:32.393Z,43.71
2018-09-11T19:59:36.498Z,44.40
2018-09-11T20:04:59.639Z,43.70
2018-09-11T20:10:02.891Z,44.08
2018-09-11T20:15:06.227Z,43.57
2018-09-11T20:20:09.549Z,43.54
2018-09-11T20:25:12.961Z,43.43
2018-09-11T20:30:16.668Z,43.18
2018-09-11T20:35:21.018Z,43.09
2018-09-11T20:40:24.359Z,43.39
2018-09-11T20:45:29.692Z,43.07
2018-09-11T20:50:33.015Z,42.85
2018-09-11T20:55:36.359Z,43.65
2018-09-11T21:00:39.686Z,43.90
2018-09-11T21:05:43.014Z,44.27
2018-09-11T21:10:46.343Z,44.82
2018-09-11T21:15:49.678Z,45.24
2018-09-11T21:20:53.055Z,45.57
2018-09-11T21:26:00.380Z,45.81
2018-09-11T21:31:03.742Z,46.44
2018-09-11T21:36:25.247Z,47.99
2018-09-11T21:41:28.951Z,48.59
2018-09-11T21:46:38.093Z,49.39
2018-09-11T21:51:41.426Z,49.92
2018-09-11T21:56:44.759Z,50.26
2018-09-11T22:01:48.866Z,50.90
2018-09-11T22:06:52.195Z,51.63
2018-09-11T22:11:55.554Z,51.60
2018-09-11T22:16:58.888Z,52.80
2018-09-11T22:22:02.219Z,52.44
2018-09-11T22:27:05.547Z,52.74
2018-09-11T22:32:08.875Z,53.30
2018-09-11T22:37:12.991Z,53.94
2018-09-11T22:42:16.325Z,54.47
2018-09-11T22:47:20.417Z,55.15
2018-09-11T22:52:23.742Z,54.90
2018-09-11T22:57:27.075Z,55.01
2018-09-11T23:02:31.174Z,55.01
2018-09-11T23:07:34.515Z,54.98
2018-09-11T23:12:37.843Z,55.27
